sensor_id;sensor_type;location;lat;lon;timestamp;temperature;humidity
71942;DHT22;59997;53.300;-6.260;2022-11-27T00:00:30;10.80;75.86
71942;DHT22;59997;53.300;-6.260;2022-11-27T00:02:55;10.87;75.41
71942;DHT22;59997;53.300;-6.260;2022-11-27T00:05:21;10.78;75.61
71942;DHT22;59997;53.300;-6.260;2022-11-27T00:07:46;10.69;76.39
71942;DHT22;59997;53.300;-6.260;2022-11-27T00:10:12;10.73;75.96
71942;DHT22;59997;53.300;-6.260;2022-11-27T00:12:37;10.74;75.98
71942;DHT22;59997;53.300;-6.260;2022-11-27T00:15:03;10.74;76.19
71942;DHT22;59997;53.300;-6.260;2022-11-27T00:17:28;10.69;76.34
71942;DHT22;59997;53.300;-6.260;2022-11-27T00:19:54;10.60;76.67
71942;DHT22;59997;53.300;-6.260;2022-11-27T00:22:19;10.64;76.72
71942;DHT22;59997;53.300;-6.260;2022-11-27T00:24:45;10.59;76.67
71942;DHT22;59997;53.300;-6.260;2022-11-27T00:27:10;10.57;76.62
71942;DHT22;59997;53.300;-6.260;2022-11-27T00:29:36;10.64;76.39
71942;DHT22;59997;53.300;-6.260;2022-11-27T00:32:01;10.63;76.42
71942;DHT22;59997;53.300;-6.260;2022-11-27T00:34:27;10.57;76.67
71942;DHT22;59997;53.300;-6.260;2022-11-27T00:36:52;10.43;77.28
71942;DHT22;59997;53.300;-6.260;2022-11-27T00:39:18;10.52;77.00
71942;DHT22;59997;53.300;-6.260;2022-11-27T00:41:44;10.50;77.35
71942;DHT22;59997;53.300;-6.260;2022-11-27T00:44:11;10.57;76.97
71942;DHT22;59997;53.300;-6.260;2022-11-27T00:46:36;10.55;76.93
71942;DHT22;59997;53.300;-6.260;2022-11-27T00:49:04;10.46;77.62
71942;DHT22;59997;53.300;-6.260;2022-11-27T00:51:29;10.49;77.51
71942;DHT22;59997;53.300;-6.260;2022-11-27T00:53:55;10.39;78.26
71942;DHT22;59997;53.300;-6.260;2022-11-27T00:56:27;10.39;78.15
71942;DHT22;59997;53.300;-6.260;2022-11-27T00:58:53;10.43;78.02
71942;DHT22;59997;53.300;-6.260;2022-11-27T01:01:27;10.49;77.94
71942;DHT22;59997;53.300;-6.260;2022-11-27T01:03:57;10.48;77.62
71942;DHT22;59997;53.300;-6.260;2022-11-27T01:06:23;10.60;77.37
71942;DHT22;59997;53.300;-6.260;2022-11-27T01:08:49;10.59;77.20
71942;DHT22;59997;53.300;-6.260;2022-11-27T01:11:21;10.45;77.56
71942;DHT22;59997;53.300;-6.260;2022-11-27T01:13:47;10.38;77.92
71942;DHT22;59997;53.300;-6.260;2022-11-27T01:16:16;10.22;78.38
71942;DHT22;59997;53.300;-6.260;2022-11-27T01:18:44;10.22;78.37
71942;DHT22;59997;53.300;-6.260;2022-11-27T01:21:10;10.21;78.36
71942;DHT22;59997;53.300;-6.260;2022-11-27T01:23:36;10.22;78.19
71942;DHT22;59997;53.300;-6.260;2022-11-27T01:26:04;10.11;78.43
71942;DHT22;59997;53.300;-6.260;2022-11-27T01:28:30;10.08;78.80
71942;DHT22;59997;53.300;-6.260;2022-11-27T01:30:56;10.15;78.23
71942;DHT22;59997;53.300;-6.260;2022-11-27T01:33:22;10.12;78.52
71942;DHT22;59997;53.300;-6.260;2022-11-27T01:35:55;10.21;78.46
71942;DHT22;59997;53.300;-6.260;2022-11-27T01:38:22;10.11;78.88
71942;DHT22;59997;53.300;-6.260;2022-11-27T01:40:48;10.09;78.79
71942;DHT22;59997;53.300;-6.260;2022-11-27T01:43:14;10.02;79.10
71942;DHT22;59997;53.300;-6.260;2022-11-27T01:45:40;10.02;79.30
71942;DHT22;59997;53.300;-6.260;2022-11-27T01:48:09;10.04;78.59
71942;DHT22;59997;53.300;-6.260;2022-11-27T01:50:37;9.95;78.88
71942;DHT22;59997;53.300;-6.260;2022-11-27T01:53:15;9.84;79.09
71942;DHT22;59997;53.300;-6.260;2022-11-27T01:55:46;9.82;79.03
71942;DHT22;59997;53.300;-6.260;2022-11-27T01:58:23;9.80;78.81
71942;DHT22;59997;53.300;-6.260;2022-11-27T02:00:49;9.97;78.07
71942;DHT22;59997;53.300;-6.260;2022-11-27T02:03:15;10.02;78.05
71942;DHT22;59997;53.300;-6.260;2022-11-27T02:05:41;9.97;78.19
71942;DHT22;59997;53.300;-6.260;2022-11-27T02:08:09;9.86;78.41
71942;DHT22;59997;53.300;-6.260;2022-11-27T02:10:53;9.84;78.77
71942;DHT22;59997;53.300;-6.260;2022-11-27T02:13:41;9.76;78.61
71942;DHT22;59997;53.300;-6.260;2022-11-27T02:16:19;9.76;78.55
71942;DHT22;59997;53.300;-6.260;2022-11-27T02:21:56;9.84;77.90
71942;DHT22;59997;53.300;-6.260;2022-11-27T02:29:59;9.70;77.88
71942;DHT22;59997;53.300;-6.260;2022-11-27T02:32:43;9.55;78.33
71942;DHT22;59997;53.300;-6.260;2022-11-27T02:35:28;9.65;77.81
71942;DHT22;59997;53.300;-6.260;2022-11-27T02:43:37;9.57;77.98
71942;DHT22;59997;53.300;-6.260;2022-11-27T02:46:05;9.67;77.81
71942;DHT22;59997;53.300;-6.260;2022-11-27T02:48:39;9.73;77.50
71942;DHT22;59997;53.300;-6.260;2022-11-27T02:51:07;9.74;77.53
71942;DHT22;59997;53.300;-6.260;2022-11-27T02:53:36;9.69;77.93
71942;DHT22;59997;53.300;-6.260;2022-11-27T02:56:10;9.65;77.95
71942;DHT22;59997;53.300;-6.260;2022-11-27T02:58:37;9.65;78.03
71942;DHT22;59997;53.300;-6.260;2022-11-27T03:01:04;9.56;78.13
71942;DHT22;59997;53.300;-6.260;2022-11-27T03:03:43;9.55;78.36
71942;DHT22;59997;53.300;-6.260;2022-11-27T03:06:11;9.67;77.75
71942;DHT22;59997;53.300;-6.260;2022-11-27T03:11:14;9.57;78.34
71942;DHT22;59997;53.300;-6.260;2022-11-27T03:13:43;9.60;78.34
71942;DHT22;59997;53.300;-6.260;2022-11-27T03:16:16;9.55;78.39
71942;DHT22;59997;53.300;-6.260;2022-11-27T03:18:58;9.52;78.11
71942;DHT22;59997;53.300;-6.260;2022-11-27T03:21:31;9.49;78.27
71942;DHT22;59997;53.300;-6.260;2022-11-27T03:23:58;9.43;78.53
71942;DHT22;59997;53.300;-6.260;2022-11-27T03:26:24;9.36;78.52
71942;DHT22;59997;53.300;-6.260;2022-11-27T03:28:52;9.38;78.37
71942;DHT22;59997;53.300;-6.260;2022-11-27T03:31:19;9.48;78.01
71942;DHT22;59997;53.300;-6.260;2022-11-27T03:33:44;9.49;78.25
71942;DHT22;59997;53.300;-6.260;2022-11-27T03:36:15;9.38;78.44
71942;DHT22;59997;53.300;-6.260;2022-11-27T03:38:42;9.38;78.45
71942;DHT22;59997;53.300;-6.260;2022-11-27T03:41:29;9.34;78.85
71942;DHT22;59997;53.300;-6.260;2022-11-27T03:46:58;9.30;77.93
71942;DHT22;59997;53.300;-6.260;2022-11-27T03:54:54;9.08;78.07
71942;DHT22;59997;53.300;-6.260;2022-11-27T03:57:33;9.14;77.47
71942;DHT22;59997;53.300;-6.260;2022-11-27T04:00:03;9.43;75.64
71942;DHT22;59997;53.300;-6.260;2022-11-27T04:02:37;9.27;76.26
71942;DHT22;59997;53.300;-6.260;2022-11-27T04:05:03;9.18;75.84
71942;DHT22;59997;53.300;-6.260;2022-11-27T04:07:28;9.17;75.56
71942;DHT22;59997;53.300;-6.260;2022-11-27T04:09:54;9.14;75.50
71942;DHT22;59997;53.300;-6.260;2022-11-27T04:12:19;9.28;74.90
71942;DHT22;59997;53.300;-6.260;2022-11-27T04:14:45;9.50;73.91
71942;DHT22;59997;53.300;-6.260;2022-11-27T04:17:10;9.48;74.19
71942;DHT22;59997;53.300;-6.260;2022-11-27T04:19:35;9.21;75.45
71942;DHT22;59997;53.300;-6.260;2022-11-27T04:22:01;8.89;76.02
71942;DHT22;59997;53.300;-6.260;2022-11-27T04:24:26;8.81;76.71
71942;DHT22;59997;53.300;-6.260;2022-11-27T04:26:52;8.80;76.94
71942;DHT22;59997;53.300;-6.260;2022-11-27T04:29:17;8.70;77.20
71942;DHT22;59997;53.300;-6.260;2022-11-27T04:31:43;8.61;77.29
71942;DHT22;59997;53.300;-6.260;2022-11-27T04:34:08;8.70;76.83
71942;DHT22;59997;53.300;-6.260;2022-11-27T04:36:33;8.84;76.38
71942;DHT22;59997;53.300;-6.260;2022-11-27T04:38:59;9.04;75.70
71942;DHT22;59997;53.300;-6.260;2022-11-27T04:41:24;9.35;74.28
71942;DHT22;59997;53.300;-6.260;2022-11-27T04:43:50;9.31;74.63
71942;DHT22;59997;53.300;-6.260;2022-11-27T04:46:15;9.15;75.03
71942;DHT22;59997;53.300;-6.260;2022-11-27T04:48:40;9.30;74.73
71942;DHT22;59997;53.300;-6.260;2022-11-27T04:51:06;9.18;75.01
71942;DHT22;59997;53.300;-6.260;2022-11-27T04:53:31;9.06;75.81
71942;DHT22;59997;53.300;-6.260;2022-11-27T04:55:57;8.89;76.66
71942;DHT22;59997;53.300;-6.260;2022-11-27T04:58:22;8.99;76.60
71942;DHT22;59997;53.300;-6.260;2022-11-27T05:00:48;8.97;76.80
71942;DHT22;59997;53.300;-6.260;2022-11-27T05:03:13;8.97;76.78
71942;DHT22;59997;53.300;-6.260;2022-11-27T05:05:38;8.93;76.88
71942;DHT22;59997;53.300;-6.260;2022-11-27T05:08:04;8.90;77.16
71942;DHT22;59997;53.300;-6.260;2022-11-27T05:10:29;8.83;77.41
71942;DHT22;59997;53.300;-6.260;2022-11-27T05:12:55;8.80;77.51
71942;DHT22;59997;53.300;-6.260;2022-11-27T05:15:20;9.00;76.98
71942;DHT22;59997;53.300;-6.260;2022-11-27T05:17:45;8.81;77.22
71942;DHT22;59997;53.300;-6.260;2022-11-27T05:20:11;8.62;78.03
71942;DHT22;59997;53.300;-6.260;2022-11-27T05:22:36;8.73;78.04
71942;DHT22;59997;53.300;-6.260;2022-11-27T05:25:02;9.07;77.22
71942;DHT22;59997;53.300;-6.260;2022-11-27T05:27:28;9.11;76.89
71942;DHT22;59997;53.300;-6.260;2022-11-27T05:29:53;9.08;77.34
71942;DHT22;59997;53.300;-6.260;2022-11-27T05:32:19;9.01;77.64
71942;DHT22;59997;53.300;-6.260;2022-11-27T05:34:44;9.21;77.18
71942;DHT22;59997;53.300;-6.260;2022-11-27T05:37:09;9.18;77.34
71942;DHT22;59997;53.300;-6.260;2022-11-27T05:39:37;9.14;77.40
71942;DHT22;59997;53.300;-6.260;2022-11-27T05:42:02;8.94;78.12
71942;DHT22;59997;53.300;-6.260;2022-11-27T05:44:28;9.03;77.88
71942;DHT22;59997;53.300;-6.260;2022-11-27T05:46:53;9.00;77.88
71942;DHT22;59997;53.300;-6.260;2022-11-27T05:49:19;9.15;77.45
71942;DHT22;59997;53.300;-6.260;2022-11-27T05:51:44;9.08;77.46
71942;DHT22;59997;53.300;-6.260;2022-11-27T05:54:09;9.13;77.36
71942;DHT22;59997;53.300;-6.260;2022-11-27T05:56:35;9.06;77.70
71942;DHT22;59997;53.300;-6.260;2022-11-27T05:59:00;8.99;77.91
71942;DHT22;59997;53.300;-6.260;2022-11-27T06:01:26;8.86;78.23
71942;DHT22;59997;53.300;-6.260;2022-11-27T06:03:51;8.96;77.88
71942;DHT22;59997;53.300;-6.260;2022-11-27T06:06:18;9.15;77.64
71942;DHT22;59997;53.300;-6.260;2022-11-27T06:08:45;9.10;78.05
71942;DHT22;59997;53.300;-6.260;2022-11-27T06:11:17;9.03;78.60
71942;DHT22;59997;53.300;-6.260;2022-11-27T06:13:43;8.91;79.15
71942;DHT22;59997;53.300;-6.260;2022-11-27T06:16:20;8.79;79.50
71942;DHT22;59997;53.300;-6.260;2022-11-27T06:18:53;8.86;79.23
71942;DHT22;59997;53.300;-6.260;2022-11-27T06:21:21;8.99;78.85
71942;DHT22;59997;53.300;-6.260;2022-11-27T06:23:47;8.81;79.03
71942;DHT22;59997;53.300;-6.260;2022-11-27T06:26:21;8.66;79.44
71942;DHT22;59997;53.300;-6.260;2022-11-27T06:28:47;8.42;80.38
71942;DHT22;59997;53.300;-6.260;2022-11-27T06:31:19;8.30;80.73
71942;DHT22;59997;53.300;-6.260;2022-11-27T06:33:49;8.31;80.93
71942;DHT22;59997;53.300;-6.260;2022-11-27T06:36:15;8.40;81.19
71942;DHT22;59997;53.300;-6.260;2022-11-27T06:38:41;8.54;80.93
71942;DHT22;59997;53.300;-6.260;2022-11-27T06:41:12;8.42;81.28
71942;DHT22;59997;53.300;-6.260;2022-11-27T06:43:38;8.37;81.58
71942;DHT22;59997;53.300;-6.260;2022-11-27T06:46:05;8.48;81.38
71942;DHT22;59997;53.300;-6.260;2022-11-27T06:48:31;8.49;81.34
71942;DHT22;59997;53.300;-6.260;2022-11-27T06:51:05;8.41;81.37
71942;DHT22;59997;53.300;-6.260;2022-11-27T06:53:33;8.16;81.97
71942;DHT22;59997;53.300;-6.260;2022-11-27T06:56:04;8.21;82.27
71942;DHT22;59997;53.300;-6.260;2022-11-27T06:58:30;8.23;82.03
71942;DHT22;59997;53.300;-6.260;2022-11-27T07:00:57;8.31;81.93
71942;DHT22;59997;53.300;-6.260;2022-11-27T07:03:23;8.19;82.06
71942;DHT22;59997;53.300;-6.260;2022-11-27T07:05:49;7.97;82.31
71942;DHT22;59997;53.300;-6.260;2022-11-27T07:08:14;7.71;83.18
71942;DHT22;59997;53.300;-6.260;2022-11-27T07:10:39;7.54;83.66
71942;DHT22;59997;53.300;-6.260;2022-11-27T07:13:05;7.37;84.12
71942;DHT22;59997;53.300;-6.260;2022-11-27T07:15:31;7.34;84.37
71942;DHT22;59997;53.300;-6.260;2022-11-27T07:17:57;7.26;84.63
71942;DHT22;59997;53.300;-6.260;2022-11-27T07:20:23;7.22;84.99
71942;DHT22;59997;53.300;-6.260;2022-11-27T07:22:48;7.20;84.95
71942;DHT22;59997;53.300;-6.260;2022-11-27T07:25:14;7.15;85.02
71942;DHT22;59997;53.300;-6.260;2022-11-27T07:27:39;7.09;85.20
71942;DHT22;59997;53.300;-6.260;2022-11-27T07:30:05;6.89;85.29
71942;DHT22;59997;53.300;-6.260;2022-11-27T07:32:31;6.81;85.85
71942;DHT22;59997;53.300;-6.260;2022-11-27T07:34:57;6.75;86.03
71942;DHT22;59997;53.300;-6.260;2022-11-27T07:37:22;6.57;85.98
71942;DHT22;59997;53.300;-6.260;2022-11-27T07:39:47;6.34;86.36
71942;DHT22;59997;53.300;-6.260;2022-11-27T07:42:13;6.25;86.41
71942;DHT22;59997;53.300;-6.260;2022-11-27T07:44:38;6.25;86.90
71942;DHT22;59997;53.300;-6.260;2022-11-27T07:47:04;6.29;86.94
71942;DHT22;59997;53.300;-6.260;2022-11-27T07:49:29;6.18;87.10
71942;DHT22;59997;53.300;-6.260;2022-11-27T07:51:55;6.67;87.53
71942;DHT22;59997;53.300;-6.260;2022-11-27T07:54:20;6.98;86.49
71942;DHT22;59997;53.300;-6.260;2022-11-27T07:56:46;7.02;86.33
71942;DHT22;59997;53.300;-6.260;2022-11-27T07:59:11;6.99;86.02
71942;DHT22;59997;53.300;-6.260;2022-11-27T08:01:36;6.98;85.62
71942;DHT22;59997;53.300;-6.260;2022-11-27T08:04:02;7.03;85.97
71942;DHT22;59997;53.300;-6.260;2022-11-27T08:06:27;7.28;85.60
71942;DHT22;59997;53.300;-6.260;2022-11-27T08:08:54;7.26;85.48
71942;DHT22;59997;53.300;-6.260;2022-11-27T08:11:24;7.28;85.10
71942;DHT22;59997;53.300;-6.260;2022-11-27T08:13:55;6.89;85.68
71942;DHT22;59997;53.300;-6.260;2022-11-27T08:16:20;6.82;86.17
71942;DHT22;59997;53.300;-6.260;2022-11-27T08:18:46;6.95;86.05
71942;DHT22;59997;53.300;-6.260;2022-11-27T08:21:11;6.93;86.15
71942;DHT22;59997;53.300;-6.260;2022-11-27T08:23:37;6.92;86.44
71942;DHT22;59997;53.300;-6.260;2022-11-27T08:26:07;6.81;86.22
71942;DHT22;59997;53.300;-6.260;2022-11-27T08:28:33;6.75;86.48
71942;DHT22;59997;53.300;-6.260;2022-11-27T08:31:01;6.67;86.67
71942;DHT22;59997;53.300;-6.260;2022-11-27T08:33:26;6.68;86.78
71942;DHT22;59997;53.300;-6.260;2022-11-27T08:35:52;6.57;87.06
71942;DHT22;59997;53.300;-6.260;2022-11-27T08:38:18;6.43;87.19
71942;DHT22;59997;53.300;-6.260;2022-11-27T08:40:44;6.57;87.17
71942;DHT22;59997;53.300;-6.260;2022-11-27T08:43:10;6.82;86.92
71942;DHT22;59997;53.300;-6.260;2022-11-27T08:45:38;6.85;86.65
71942;DHT22;59997;53.300;-6.260;2022-11-27T08:48:04;6.95;86.30
71942;DHT22;59997;53.300;-6.260;2022-11-27T08:50:30;6.85;86.22
71942;DHT22;59997;53.300;-6.260;2022-11-27T08:52:56;6.72;86.18
71942;DHT22;59997;53.300;-6.260;2022-11-27T08:55:21;6.61;86.49
71942;DHT22;59997;53.300;-6.260;2022-11-27T08:57:47;6.80;86.23
71942;DHT22;59997;53.300;-6.260;2022-11-27T09:00:12;6.64;86.19
71942;DHT22;59997;53.300;-6.260;2022-11-27T09:02:38;6.60;86.61
71942;DHT22;59997;53.300;-6.260;2022-11-27T09:05:04;6.65;86.57
71942;DHT22;59997;53.300;-6.260;2022-11-27T09:07:29;6.74;86.74
71942;DHT22;59997;53.300;-6.260;2022-11-27T09:09:55;6.82;86.70
71942;DHT22;59997;53.300;-6.260;2022-11-27T09:12:20;7.09;86.74
71942;DHT22;59997;53.300;-6.260;2022-11-27T09:14:46;7.40;86.48
71942;DHT22;59997;53.300;-6.260;2022-11-27T09:17:11;7.68;85.86
71942;DHT22;59997;53.300;-6.260;2022-11-27T09:19:37;7.90;85.43
71942;DHT22;59997;53.300;-6.260;2022-11-27T09:22:02;7.97;84.88
71942;DHT22;59997;53.300;-6.260;2022-11-27T09:24:28;8.07;84.76
71942;DHT22;59997;53.300;-6.260;2022-11-27T09:26:53;8.20;84.64
71942;DHT22;59997;53.300;-6.260;2022-11-27T09:29:19;8.23;84.48
71942;DHT22;59997;53.300;-6.260;2022-11-27T09:31:44;8.20;84.42
71942;DHT22;59997;53.300;-6.260;2022-11-27T09:34:10;8.30;84.04
71942;DHT22;59997;53.300;-6.260;2022-11-27T09:36:35;8.55;83.72
71942;DHT22;59997;53.300;-6.260;2022-11-27T09:39:01;8.93;82.98
71942;DHT22;59997;53.300;-6.260;2022-11-27T09:46:55;9.28;80.87
71942;DHT22;59997;53.300;-6.260;2022-11-27T09:49:25;9.25;81.79
71942;DHT22;59997;53.300;-6.260;2022-11-27T09:55:00;9.43;81.75
71942;DHT22;59997;53.300;-6.260;2022-11-27T09:57:30;9.89;80.57
71942;DHT22;59997;53.300;-6.260;2022-11-27T10:00:01;10.55;79.36
71942;DHT22;59997;53.300;-6.260;2022-11-27T10:02:29;10.94;78.46
71942;DHT22;59997;53.300;-6.260;2022-11-27T10:04:56;11.42;76.30
71942;DHT22;59997;53.300;-6.260;2022-11-27T10:10:40;12.43;74.92
71942;DHT22;59997;53.300;-6.260;2022-11-27T10:13:14;12.81;72.67
71942;DHT22;59997;53.300;-6.260;2022-11-27T10:18:39;12.08;72.68
71942;DHT22;59997;53.300;-6.260;2022-11-27T10:21:39;11.77;74.30
71942;DHT22;59997;53.300;-6.260;2022-11-27T10:24:16;11.53;75.55
71942;DHT22;59997;53.300;-6.260;2022-11-27T10:26:46;11.71;75.53
71942;DHT22;59997;53.300;-6.260;2022-11-27T10:29:38;12.49;72.30
71942;DHT22;59997;53.300;-6.260;2022-11-27T10:32:28;13.82;69.70
71942;DHT22;59997;53.300;-6.260;2022-11-27T10:34:58;14.41;66.13
71942;DHT22;59997;53.300;-6.260;2022-11-27T10:37:38;15.00;63.40
71942;DHT22;59997;53.300;-6.260;2022-11-27T10:40:07;15.62;61.39
71942;DHT22;59997;53.300;-6.260;2022-11-27T10:42:46;15.34;64.04
71942;DHT22;59997;53.300;-6.260;2022-11-27T10:45:21;14.62;63.94
71942;DHT22;59997;53.300;-6.260;2022-11-27T10:47:49;14.02;66.40
71942;DHT22;59997;53.300;-6.260;2022-11-27T10:50:16;13.50;66.90
71942;DHT22;59997;53.300;-6.260;2022-11-27T10:53:09;13.27;69.14
71942;DHT22;59997;53.300;-6.260;2022-11-27T10:56:13;13.57;68.68
71942;DHT22;59997;53.300;-6.260;2022-11-27T11:01:10;13.54;69.66
71942;DHT22;59997;53.300;-6.260;2022-11-27T11:03:36;12.96;72.49
71942;DHT22;59997;53.300;-6.260;2022-11-27T11:06:11;12.64;72.88
71942;DHT22;59997;53.300;-6.260;2022-11-27T11:08:38;12.50;73.02
71942;DHT22;59997;53.300;-6.260;2022-11-27T11:11:06;12.56;73.16
71942;DHT22;59997;53.300;-6.260;2022-11-27T11:16:16;12.40;73.61
71942;DHT22;59997;53.300;-6.260;2022-11-27T11:18:50;13.24;71.49
71942;DHT22;59997;53.300;-6.260;2022-11-27T11:24:02;13.41;70.81
71942;DHT22;59997;53.300;-6.260;2022-11-27T11:26:37;13.79;70.50
71942;DHT22;59997;53.300;-6.260;2022-11-27T11:29:06;14.78;66.27
71942;DHT22;59997;53.300;-6.260;2022-11-27T11:31:39;14.61;66.24
71942;DHT22;59997;53.300;-6.260;2022-11-27T11:34:34;14.03;66.56
71942;DHT22;59997;53.300;-6.260;2022-11-27T11:37:24;13.27;69.10
71942;DHT22;59997;53.300;-6.260;2022-11-27T11:40:16;13.12;70.63
71942;DHT22;59997;53.300;-6.260;2022-11-27T11:43:05;13.00;70.64
71942;DHT22;59997;53.300;-6.260;2022-11-27T11:45:43;12.71;71.12
71942;DHT22;59997;53.300;-6.260;2022-11-27T11:48:25;12.51;72.18
71942;DHT22;59997;53.300;-6.260;2022-11-27T11:53:38;12.36;73.58
71942;DHT22;59997;53.300;-6.260;2022-11-27T12:07:15;11.63;76.38
71942;DHT22;59997;53.300;-6.260;2022-11-27T12:15:31;10.66;81.50
71942;DHT22;59997;53.300;-6.260;2022-11-27T12:20:50;9.93;83.65
71942;DHT22;59997;53.300;-6.260;2022-11-27T12:26:28;9.52;83.91
71942;DHT22;59997;53.300;-6.260;2022-11-27T12:40:06;11.74;79.74
71942;DHT22;59997;53.300;-6.260;2022-11-27T12:42:49;11.64;79.78
71942;DHT22;59997;53.300;-6.260;2022-11-27T12:45:20;11.66;78.58
71942;DHT22;59997;53.300;-6.260;2022-11-27T12:50:44;11.70;78.86
71942;DHT22;59997;53.300;-6.260;2022-11-27T12:55:50;11.54;77.83
71942;DHT22;59997;53.300;-6.260;2022-11-27T12:58:32;11.08;78.51
71942;DHT22;59997;53.300;-6.260;2022-11-27T13:01:07;11.04;80.05
71942;DHT22;59997;53.300;-6.260;2022-11-27T13:03:43;11.02;78.96
71942;DHT22;59997;53.300;-6.260;2022-11-27T13:06:17;11.01;79.44
71942;DHT22;59997;53.300;-6.260;2022-11-27T13:08:58;10.77;78.65
71942;DHT22;59997;53.300;-6.260;2022-11-27T13:11:31;10.76;78.76
71942;DHT22;59997;53.300;-6.260;2022-11-27T13:14:24;10.74;77.51
71942;DHT22;59997;53.300;-6.260;2022-11-27T13:17:02;10.77;78.75
71942;DHT22;59997;53.300;-6.260;2022-11-27T13:19:36;10.78;77.05
71942;DHT22;59997;53.300;-6.260;2022-11-27T13:22:09;10.80;77.00
71942;DHT22;59997;53.300;-6.260;2022-11-27T13:24:36;10.81;77.15
71942;DHT22;59997;53.300;-6.260;2022-11-27T13:27:08;10.80;76.37
71942;DHT22;59997;53.300;-6.260;2022-11-27T13:32:26;10.26;77.80
71942;DHT22;59997;53.300;-6.260;2022-11-27T13:34:56;10.02;78.21
71942;DHT22;59997;53.300;-6.260;2022-11-27T13:37:35;9.87;78.79
71942;DHT22;59997;53.300;-6.260;2022-11-27T13:42:44;10.08;78.24
71942;DHT22;59997;53.300;-6.260;2022-11-27T13:45:20;10.19;77.02
71942;DHT22;59997;53.300;-6.260;2022-11-27T13:47:46;10.32;77.74
71942;DHT22;59997;53.300;-6.260;2022-11-27T13:50:15;10.53;78.10
71942;DHT22;59997;53.300;-6.260;2022-11-27T13:53:01;10.73;76.00
71942;DHT22;59997;53.300;-6.260;2022-11-27T13:55:34;10.88;76.20
71942;DHT22;59997;53.300;-6.260;2022-11-27T13:58:00;10.95;76.00
71942;DHT22;59997;53.300;-6.260;2022-11-27T14:00:45;10.94;75.00
71942;DHT22;59997;53.300;-6.260;2022-11-27T14:03:28;10.90;75.78
71942;DHT22;59997;53.300;-6.260;2022-11-27T14:05:55;10.80;75.46
71942;DHT22;59997;53.300;-6.260;2022-11-27T14:08:27;10.80;74.30
71942;DHT22;59997;53.300;-6.260;2022-11-27T14:13:34;10.50;76.49
71942;DHT22;59997;53.300;-6.260;2022-11-27T14:16:01;10.22;77.13
71942;DHT22;59997;53.300;-6.260;2022-11-27T14:18:29;10.08;78.46
71942;DHT22;59997;53.300;-6.260;2022-11-27T14:21:02;9.84;79.21
71942;DHT22;59997;53.300;-6.260;2022-11-27T14:23:49;9.76;79.36
71942;DHT22;59997;53.300;-6.260;2022-11-27T14:28:46;9.83;79.31
71942;DHT22;59997;53.300;-6.260;2022-11-27T14:31:33;10.00;78.54
71942;DHT22;59997;53.300;-6.260;2022-11-27T14:34:02;10.02;78.50
71942;DHT22;59997;53.300;-6.260;2022-11-27T14:36:30;10.04;78.97
71942;DHT22;59997;53.300;-6.260;2022-11-27T14:39:00;10.01;79.27
71942;DHT22;59997;53.300;-6.260;2022-11-27T14:41:27;9.90;79.74
71942;DHT22;59997;53.300;-6.260;2022-11-27T14:44:04;9.82;79.91
71942;DHT22;59997;53.300;-6.260;2022-11-27T14:46:34;9.72;80.80
71942;DHT22;59997;53.300;-6.260;2022-11-27T14:49:00;9.90;79.35
71942;DHT22;59997;53.300;-6.260;2022-11-27T14:51:31;9.83;79.90
71942;DHT22;59997;53.300;-6.260;2022-11-27T14:54:01;9.79;79.48
71942;DHT22;59997;53.300;-6.260;2022-11-27T14:56:31;9.65;81.03
71942;DHT22;59997;53.300;-6.260;2022-11-27T14:58:58;9.56;80.93
71942;DHT22;59997;53.300;-6.260;2022-11-27T15:01:29;9.49;80.93
71942;DHT22;59997;53.300;-6.260;2022-11-27T15:04:03;9.48;80.51
71942;DHT22;59997;53.300;-6.260;2022-11-27T15:06:39;9.35;80.65
71942;DHT22;59997;53.300;-6.260;2022-11-27T15:09:14;9.43;79.91
71942;DHT22;59997;53.300;-6.260;2022-11-27T15:11:40;9.46;80.20
71942;DHT22;59997;53.300;-6.260;2022-11-27T15:14:11;9.43;80.04
71942;DHT22;59997;53.300;-6.260;2022-11-27T15:16:43;9.49;79.83
71942;DHT22;59997;53.300;-6.260;2022-11-27T15:19:16;9.35;80.52
71942;DHT22;59997;53.300;-6.260;2022-11-27T15:21:47;9.32;79.38
71942;DHT22;59997;53.300;-6.260;2022-11-27T15:24:31;9.32;79.65
71942;DHT22;59997;53.300;-6.260;2022-11-27T15:29:41;9.22;79.59
71942;DHT22;59997;53.300;-6.260;2022-11-27T15:32:19;9.20;79.93
71942;DHT22;59997;53.300;-6.260;2022-11-27T15:34:45;9.24;79.74
71942;DHT22;59997;53.300;-6.260;2022-11-27T15:37:23;9.04;80.34
71942;DHT22;59997;53.300;-6.260;2022-11-27T15:39:53;8.73;81.03
71942;DHT22;59997;53.300;-6.260;2022-11-27T15:42:19;8.42;81.96
71942;DHT22;59997;53.300;-6.260;2022-11-27T15:44:47;8.49;81.36
71942;DHT22;59997;53.300;-6.260;2022-11-27T15:47:34;8.55;81.21
71942;DHT22;59997;53.300;-6.260;2022-11-27T15:50:00;8.59;80.63
71942;DHT22;59997;53.300;-6.260;2022-11-27T15:52:26;8.55;80.92
71942;DHT22;59997;53.300;-6.260;2022-11-27T15:54:52;8.48;80.78
71942;DHT22;59997;53.300;-6.260;2022-11-27T15:57:19;8.45;81.00
71942;DHT22;59997;53.300;-6.260;2022-11-27T15:59:44;8.48;80.67
71942;DHT22;59997;53.300;-6.260;2022-11-27T16:02:11;8.58;80.55
71942;DHT22;59997;53.300;-6.260;2022-11-27T16:04:37;8.55;80.31
71942;DHT22;59997;53.300;-6.260;2022-11-27T16:07:02;8.63;80.20
71942;DHT22;59997;53.300;-6.260;2022-11-27T16:09:28;8.65;80.08
71942;DHT22;59997;53.300;-6.260;2022-11-27T16:11:54;8.63;80.40
71942;DHT22;59997;53.300;-6.260;2022-11-27T16:14:20;8.75;79.87
71942;DHT22;59997;53.300;-6.260;2022-11-27T16:16:46;8.83;79.49
71942;DHT22;59997;53.300;-6.260;2022-11-27T16:19:11;8.80;79.70
71942;DHT22;59997;53.300;-6.260;2022-11-27T16:21:40;8.63;80.38
71942;DHT22;59997;53.300;-6.260;2022-11-27T16:24:07;8.62;80.50
71942;DHT22;59997;53.300;-6.260;2022-11-27T16:26:33;8.59;80.94
71942;DHT22;59997;53.300;-6.260;2022-11-27T16:29:00;8.63;80.84
71942;DHT22;59997;53.300;-6.260;2022-11-27T16:31:25;8.75;80.50
71942;DHT22;59997;53.300;-6.260;2022-11-27T16:33:51;8.86;80.14
71942;DHT22;59997;53.300;-6.260;2022-11-27T16:36:18;9.07;79.60
71942;DHT22;59997;53.300;-6.260;2022-11-27T16:38:45;9.04;79.75
71942;DHT22;59997;53.300;-6.260;2022-11-27T16:41:16;8.97;80.22
71942;DHT22;59997;53.300;-6.260;2022-11-27T16:43:44;8.84;80.48
71942;DHT22;59997;53.300;-6.260;2022-11-27T16:46:14;8.75;80.85
71942;DHT22;59997;53.300;-6.260;2022-11-27T16:48:41;8.94;80.33
71942;DHT22;59997;53.300;-6.260;2022-11-27T16:51:10;8.94;80.58
71942;DHT22;59997;53.300;-6.260;2022-11-27T16:53:41;8.81;81.12
71942;DHT22;59997;53.300;-6.260;2022-11-27T16:56:08;8.73;81.22
71942;DHT22;59997;53.300;-6.260;2022-11-27T16:58:35;8.65;81.49
71942;DHT22;59997;53.300;-6.260;2022-11-27T17:01:05;8.49;81.89
71942;DHT22;59997;53.300;-6.260;2022-11-27T17:03:31;8.51;82.09
71942;DHT22;59997;53.300;-6.260;2022-11-27T17:05:56;8.55;82.24
71942;DHT22;59997;53.300;-6.260;2022-11-27T17:08:23;8.55;82.17
71942;DHT22;59997;53.300;-6.260;2022-11-27T17:10:49;8.61;82.31
71942;DHT22;59997;53.300;-6.260;2022-11-27T17:13:14;8.65;82.16
71942;DHT22;59997;53.300;-6.260;2022-11-27T17:15:40;8.62;81.96
71942;DHT22;59997;53.300;-6.260;2022-11-27T17:18:05;8.54;81.84
71942;DHT22;59997;53.300;-6.260;2022-11-27T17:20:31;8.41;81.96